Latest Weather Observations for Dum In Mirrie

IDD60901

Issued at 9:51 am CST Saturday 13 February 2016 (issued every 10 minutes, with the page automatically refreshed every 10 minutes)

About weather observations | Map of Darwin area stations | Latest observations for Darwin area | Other Formats
Station Details ID: 014277 Name: DUM IN MIRRIE AIRSTRIP Lat: -12.63 Lon: 130.37 Height: 3.5 m
Data from the previous 72 hours. | See also: Recent months at Dum In Mirrie
Date/Time
CST
Tmp

°C
App
Tmp
°C
Dew
Point
°C
Rel
Hum
%
Delta-T

°C
Wind Press
QNH
hPa
Press
MSL
hPa
Rain
since
9 am
mm
Dir
 
Spd
km/h
Gust
km/h
Spd
kts
Gust
kts
13/09:30am 30.9 36.2 26.4 77 3.2 SW 11 19 6 10 1009.9 1009.9 0.0
13/09:00am 30.7 36.5 26.6 79 2.9 SW 9 19 5 10 1009.7 1009.7 11.8
13/08:30am 30.5 35.6 26.2 78 3.1 SW 11 22 6 12 1009.6 1009.6 11.8
13/08:00am 30.4 35.6 26.3 79 2.9 SW 11 20 6 11 1009.6 1009.6 11.8
13/07:30am 30.2 36.4 26.6 81 2.6 SW 7 17 4 9 1008.8 1008.8 11.8
13/07:00am 30.0 35.5 26.2 80 2.7 SW 9 20 5 11 1008.4 1008.4 11.8
13/06:30am 29.9 35.6 26.5 82 2.4 SW 9 20 5 11 1007.7 1007.7 11.8
13/06:00am 29.8 36.0 26.4 82 2.4 WSW 6 13 3 7 1007.3 1007.3 11.8
13/05:30am 29.6 35.6 26.0 81 2.6 SW 6 11 3 6 1007.2 1007.2 11.8
13/05:00am 29.5 35.3 25.7 80 2.7 SW 6 11 3 6 1007.0 1007.0 11.8
13/04:30am 29.7 35.0 26.5 83 2.3 WSW 11 24 6 13 1006.7 1006.7 11.8
13/04:00am 29.6 34.1 26.4 83 2.3 W 15 22 8 12 1006.4 1006.4 11.8
13/03:30am 29.2 34.7 26.8 87 1.7 WSW 11 28 6 15 1006.5 1006.5 11.8
13/03:00am 28.4 33.6 26.8 91 1.1 W 13 28 7 15 1006.7 1006.7 11.4
13/02:30am 30.2 35.1 26.4 80 2.7 W 13 22 7 12 1006.7 1006.7 0.6
13/02:00am 30.3 34.9 26.5 80 2.7 W 15 24 8 13 1007.3 1007.3 0.6
13/01:30am 30.3 34.4 25.8 77 3.2 W 15 22 8 12 1007.5 1007.5 0.6
13/01:00am 30.4 35.0 25.9 77 3.2 W 13 19 7 10 1007.8 1007.8 0.6
13/12:30am 30.3 35.1 25.1 73 3.7 W 9 19 5 10 1008.1 1008.1 0.6
13/12:00am 30.4 35.5 25.5 75 3.5 WSW 9 19 5 10 1008.4 1008.4 0.6
 
Date/Time
CST
Tmp

°C
App
Tmp
°C
Dew
Point
°C
Rel
Hum
%
Delta-T

°C
Wind Press
QNH
hPa
Press
MSL
hPa
Rain
since
9 am
mm
Dir
 
Spd
km/h
Gust
km/h
Spd
kts
Gust
kts
12/11:30pm 30.3 35.1 25.1 73 3.7 W 9 17 5 9 1008.7 1008.7 0.6
12/11:00pm 30.1 35.4 25.2 75 3.5 WNW 7 15 4 8 1008.6 1008.6 0.6
12/10:30pm 30.2 35.5 25.3 75 3.5 WNW 7 13 4 7 1008.2 1008.2 0.6
12/10:00pm 30.4 35.7 25.2 74 3.7 W 7 13 4 7 1008.1 1008.1 0.6
12/09:30pm 30.3 35.5 25.1 73 3.7 WNW 7 13 4 7 1008.1 1008.1 0.6
12/09:00pm 30.2 35.5 25.0 73 3.7 W 6 11 3 6 1007.9 1007.9 0.6
12/08:30pm 30.0 36.0 25.5 77 3.2 WSW 4 7 2 4 1007.5 1007.5 0.6
12/08:00pm 30.0 35.6 25.5 77 3.2 W 6 9 3 5 1006.9 1006.9 0.6
12/07:30pm 30.2 35.5 25.0 73 3.7 WSW 6 11 3 6 1006.5 1006.5 0.6
12/07:00pm 30.3 35.7 25.1 73 3.7 WSW 6 11 3 6 1006.2 1006.2 0.6
12/06:30pm 30.4 36.1 25.0 73 3.8 W 4 9 2 5 1006.1 1006.1 0.6
12/06:00pm 30.5 35.6 24.6 70 4.1 WSW 6 7 3 4 1005.8 1005.8 0.6
12/05:30pm 30.2 35.2 23.9 69 4.4 S 4 7 2 4 1005.5 1005.5 0.6
12/05:00pm 30.2 34.8 24.1 70 4.2 SE 7 17 4 9 1005.6 1005.6 0.6
12/04:30pm 31.7 35.6 24.8 67 4.9 SW 13 22 7 12 1005.2 1005.2 0.6
12/04:00pm 32.3 37.2 25.9 69 4.6 WSW 11 19 6 10 1005.5 1005.5 0.6
12/03:30pm 32.4 37.6 25.7 68 4.8 W 9 17 5 9 1005.8 1005.8 0.6
12/03:00pm 32.5 38.1 26.3 70 4.5 W 9 17 5 9 1005.8 1005.8 0.6
12/02:30pm 32.4 37.9 26.2 70 4.4 W 9 13 5 7 1006.2 1006.2 0.6
12/02:00pm 31.6 36.7 25.5 70 4.3 W 9 15 5 8 1006.5 1006.5 0.6
12/01:30pm 31.7 37.0 25.8 71 4.2 WNW 9 19 5 10 1006.8 1006.8 0.6
12/01:00pm 31.1 35.5 25.0 70 4.3 W 11 17 6 9 1007.1 1007.1 0.6
12/12:30pm 30.8 35.4 24.7 70 4.3 W 9 17 5 9 1007.5 1007.5 0.6
12/12:00pm 31.2 36.5 25.3 71 4.2 W 7 13 4 7 1008.1 1008.1 0.6
12/11:30am 30.6 36.0 25.2 73 3.8 WSW 6 9 3 5 1008.4 1008.4 0.6
12/11:00am 30.4 35.4 24.5 70 4.1 WSW 6 9 3 5 1008.7 1008.7 0.6
12/10:30am 29.7 34.8 24.1 72 3.9 W 4 7 2 4 1008.8 1008.8 0.6
12/10:00am 29.0 34.3 25.0 79 2.8 W 6 9 3 5 1008.9 1008.9 0.6
12/09:30am 28.0 33.1 25.0 84 2.1 W 7 13 4 7 1009.3 1009.3 0.2
12/09:00am 29.6 35.7 25.6 79 2.8 W 4 6 2 3 1009.1 1009.1 0.2
12/08:30am 29.4 35.8 24.9 77 3.2 CALM 0 0 0 0 1008.8 1008.8 0.2
12/08:00am 28.7 34.8 25.1 81 2.5 SSW 2 4 1 2 1008.6 1008.6 0.2
12/07:30am 28.5 34.3 25.7 85 2.0 S 6 11 3 6 1008.1 1008.1 0.2
12/07:00am 28.5 34.0 25.3 83 2.2 S 6 9 3 5 1007.8 1007.8 0.2
12/06:30am 29.5 34.4 25.3 78 3.0 SW 9 17 5 9 1007.4 1007.4 0.2
12/06:00am 29.2 35.5 26.0 83 2.3 W 4 9 2 5 1007.1 1007.1 0.2
12/05:30am 29.5 35.7 26.3 83 2.3 SW 6 13 3 7 1006.7 1006.7 0.2
12/05:00am 29.7 35.4 26.5 83 2.3 WSW 9 17 5 9 1006.5 1006.5 0.2
12/04:30am 29.2 35.6 26.6 86 1.9 W 6 7 3 4 1006.4 1006.4 0.2
12/04:00am 27.2 33.8 25.8 92 1.0 NW 2 7 1 4 1006.3 1006.3 0.2
12/03:30am 26.9 32.2 24.4 86 1.7 NW 4 7 2 4 1006.0 1006.0 0.2
12/03:00am 28.5 33.1 23.2 73 3.6 WNW 4 6 2 3 1006.2 1006.2 0.2
12/02:30am 28.5 33.4 23.6 75 3.4 WNW 4 7 2 4 1006.4 1006.4 0.2
12/02:00am 28.4 33.7 24.4 79 2.8 WNW 4 9 2 5 1006.7 1006.7 0.2
12/01:30am 28.1 33.4 24.3 80 2.6 NW 4 7 2 4 1006.8 1006.8 0.2
12/01:00am 28.3 33.8 24.7 81 2.5 NW 4 7 2 4 1007.1 1007.1 0.2
12/12:30am 28.5 33.9 25.1 82 2.4 WNW 6 13 3 7 1007.2 1007.2 0.2
12/12:00am 28.1 33.7 24.3 80 2.6 WNW 2 9 1 5 1007.6 1007.6 0.2
 
Date/Time
CST
Tmp

°C
App
Tmp
°C
Dew
Point
°C
Rel
Hum
%
Delta-T

°C
Wind Press
QNH
hPa
Press
MSL
hPa
Rain
since
9 am
mm
Dir
 
Spd
km/h
Gust
km/h
Spd
kts
Gust
kts
11/11:30pm 27.8 32.9 24.0 80 2.6 SW 4 7 2 4 1008.3 1008.3 0.2
11/11:00pm 27.4 33.3 24.7 85 1.9 S 2 6 1 3 1008.2 1008.2 0.2
11/10:30pm 26.7 31.7 23.8 84 2.0 SSE 4 7 2 4 1008.1 1008.1 0.2
11/10:00pm 26.1 31.9 24.0 88 1.4 CALM 0 0 0 0 1007.8 1007.8 0.2
11/09:30pm 26.3 32.0 23.8 86 1.7 CALM 0 0 0 0 1007.8 1007.8 0.2
11/09:00pm 26.5 31.8 23.0 81 2.4 CALM 0 6 0 3 1006.9 1006.9 0.2
11/08:30pm 27.1 31.3 22.5 76 3.1 SSW 4 7 2 4 1006.6 1006.6 0.2
11/08:00pm 27.8 30.7 22.5 73 3.6 S 11 24 6 13 1006.3 1006.3 0.2
11/07:30pm 30.6 36.6 26.1 77 3.2 WSW 6 9 3 5 1005.8 1005.8 0.2
11/07:00pm 30.7 34.9 26.0 76 3.3 W 15 24 8 13 1005.2 1005.2 0.2
11/06:30pm 31.3 36.0 26.1 74 3.7 W 13 22 7 12 1004.7 1004.7 0.2
11/06:00pm 31.8 37.2 26.6 74 3.7 W 11 22 6 12 1004.1 1004.1 0.2
11/05:30pm 31.9 37.2 26.4 72 4.0 W 11 17 6 9 1003.7 1003.7 0.2
11/05:00pm 32.3 37.6 26.4 71 4.2 W 11 22 6 12 1003.6 1003.6 0.2
11/04:30pm 32.6 38.0 26.6 70 4.3 W 11 19 6 10 1003.8 1003.8 0.2
11/04:00pm 32.6 37.5 26.4 70 4.5 W 13 19 7 10 1004.0 1004.0 0.2
11/03:30pm 32.6 38.1 26.2 69 4.6 WSW 9 17 5 9 1004.2 1004.2 0.2
11/03:00pm 32.7 37.9 26.3 69 4.6 WSW 11 19 6 10 1004.3 1004.3 0.2
11/02:30pm 32.9 38.4 26.7 70 4.5 W 11 19 6 10 1004.6 1004.6 0.2
11/02:00pm 32.9 38.5 26.9 70 4.3 W 11 19 6 10 1004.8 1004.8 0.2
11/01:30pm 32.5 37.7 26.3 70 4.5 W 11 17 6 9 1005.1 1005.1 0.2
11/01:00pm 31.7 37.9 26.7 75 3.6 W 7 15 4 8 1005.6 1005.6 0.2
11/12:30pm 31.8 38.1 26.8 75 3.6 W 7 13 4 7 1006.1 1006.1 0.2
11/12:00pm 31.4 37.4 26.4 75 3.6 WNW 7 13 4 7 1006.7 1006.7 0.2
11/11:30am 31.2 37.0 25.8 73 3.8 NW 6 9 3 5 1007.0 1007.0 0.2
11/11:00am 30.7 36.7 26.0 76 3.3 NNW 6 11 3 6 1007.3 1007.3 0.2
11/10:30am 30.7 37.2 26.2 77 3.2 W 4 7 2 4 1007.4 1007.4 0.2
11/10:00am 30.1 35.9 25.2 75 3.5 SW 4 7 2 4 1007.5 1007.5 0.2
11/09:30am 29.5 35.9 25.5 79 2.8 ESE 2 4 1 2 1007.8 1007.8 0.0
11/09:00am 29.1 35.2 25.1 79 2.8 ENE 2 4 1 2 1007.6 1007.6 1.6
11/08:30am 28.1 33.6 25.3 85 2.0 ESE 6 7 3 4 1007.7 1007.7 1.6
11/08:00am 28.1 34.9 26.1 89 1.4 E 2 6 1 3 1007.5 1007.5 1.6
11/07:30am 27.0 33.3 24.8 88 1.5 CALM 0 4 0 2 1007.1 1007.1 1.6
11/07:00am 26.9 32.3 25.1 90 1.3 NW 6 13 3 7 1006.5 1006.5 1.6
11/06:30am 25.9 30.9 24.5 92 1.0 N 6 9 3 5 1006.2 1006.2 1.6
11/06:00am 26.0 32.6 25.3 96 0.5 CALM 0 0 0 0 1005.8 1005.8 1.6
11/05:30am 25.7 31.0 24.3 92 1.0 ENE 4 6 2 3 1006.3 1006.3 1.6
11/05:00am 25.8 30.4 24.2 91 1.1 ESE 7 13 4 7 1006.8 1006.8 1.6
11/04:30am 26.1 29.9 24.1 89 1.4 SSE 11 20 6 11 1006.8 1006.8 1.6
11/04:00am 27.9 32.6 24.3 81 2.5 S 7 13 4 7 1006.6 1006.6 1.2
11/03:30am 29.2 33.4 25.4 80 2.7 W 13 20 7 11 1006.0 1006.0 1.2
11/03:00am 28.5 32.4 23.6 75 3.4 WNW 9 17 5 9 1005.6 1005.6 1.2
11/02:30am 27.9 32.6 23.9 79 2.8 WNW 6 11 3 6 1005.5 1005.5 1.2
11/02:00am 27.4 32.3 24.3 83 2.1 W 6 11 3 6 1005.9 1005.9 1.2
11/01:30am 26.6 31.9 24.4 88 1.5 W 4 9 2 5 1006.4 1006.4 1.2
11/01:00am 26.4 31.3 24.4 89 1.4 SW 6 9 3 5 1007.1 1007.1 1.0
11/12:30am 26.2 30.4 24.8 92 1.0 SSW 11 20 6 11 1007.8 1007.8 0.8
11/12:00am 28.6 31.2 23.9 75 3.3 SW 17 41 9 22 1008.1 1008.1 0.0
 
Date/Time
CST
Tmp

°C
App
Tmp
°C
Dew
Point
°C
Rel
Hum
%
Delta-T

°C
Wind Press
QNH
hPa
Press
MSL
hPa
Rain
since
9 am
mm
Dir
 
Spd
km/h
Gust
km/h
Spd
kts
Gust
kts
10/11:30pm 30.1 35.2 26.1 79 2.9 W 11 19 6 10 1007.8 1007.8 0.0
10/11:00pm 30.1 35.7 26.3 80 2.7 WNW 9 19 5 10 1007.3 1007.3 0.0
10/10:30pm 30.1 35.6 26.1 79 2.9 NW 9 17 5 9 1007.1 1007.1 0.0
10/10:00pm 30.1 35.4 25.8 78 3.1 WNW 9 17 5 9 1007.0 1007.0 0.0
10/09:30pm 30.1 35.6 25.6 77 3.2 WNW 7 15 4 8 1007.1 1007.1 0.0
10/09:00pm 30.2 35.3 25.5 76 3.3 NW 9 13 5 7 1007.0 1007.0 0.0
10/08:30pm 30.3 35.7 25.4 75 3.5 WNW 7 15 4 8 1006.9 1006.9 0.0
10/08:00pm 30.2 35.6 25.5 76 3.3 NW 7 13 4 7 1006.2 1006.2 0.0
10/07:30pm 30.3 36.0 25.6 76 3.3 WNW 6 13 3 7 1006.0 1006.0 0.0
10/07:00pm 30.9 36.5 25.5 73 3.8 WNW 6 13 3 7 1005.6 1005.6 0.0
10/06:30pm 31.8 37.8 26.1 72 4.1 NW 6 11 3 6 1005.4 1005.4 0.0
10/06:00pm 32.1 37.1 25.4 67 4.8 W 9 15 5 8 1004.9 1004.9 0.0
10/05:30pm 32.4 38.0 25.7 68 4.8 WNW 7 13 4 7 1004.7 1004.7 0.0
10/05:00pm 32.5 37.2 25.6 67 4.9 W 11 20 6 11 1004.7 1004.7 0.0
10/04:30pm 32.5 37.2 25.6 67 4.9 W 11 20 6 11 1004.3 1004.3 0.0
10/04:00pm 32.5 37.0 25.8 68 4.8 WNW 13 20 7 11 1004.2 1004.2 0.0
10/03:30pm 32.6 37.2 25.9 68 4.8 W 13 24 7 13 1004.3 1004.3 0.0
10/03:00pm 32.5 36.6 25.8 68 4.8 W 15 24 8 13 1004.5 1004.5 0.0
10/02:30pm 32.8 37.7 26.4 69 4.6 W 13 22 7 12 1005.1 1005.1 0.0
10/02:00pm 32.4 37.2 26.2 70 4.4 W 13 24 7 13 1005.7 1005.7 0.0
10/01:30pm 32.3 36.8 26.4 71 4.2 W 15 24 8 13 1006.1 1006.1 0.0
10/01:00pm 32.3 37.7 27.1 74 3.8 W 13 20 7 11 1006.5 1006.5 0.0
10/12:30pm 32.4 38.0 26.9 73 4.0 WSW 11 24 6 13 1007.0 1007.0 0.0
10/12:00pm 32.0 36.4 26.3 72 4.1 W 15 20 8 11 1007.2 1007.2 0.0
10/11:30am 31.8 36.4 26.6 74 3.7 W 15 22 8 12 1007.4 1007.4 0.0
10/11:00am 31.0 34.7 25.8 74 3.7 W 17 22 9 12 1007.6 1007.6 0.0
10/10:30am 31.5 36.8 26.5 75 3.6 W 11 17 6 9 1007.8 1007.8 0.0
10/10:00am 31.4 36.9 26.2 74 3.7 W 9 15 5 8 1007.9 1007.9 0.0

Latest Capital City Observations: Canberra | Sydney | Melbourne | Brisbane | Adelaide | Perth | Hobart | Darwin

Other Formats:

Comma delimited format used in spreadsheet applications
http://www.bom.gov.au/fwo/IDD60901/IDD60901.94116.axf

JavaScript Object Notation format (JSON) in row-major order
http://www.bom.gov.au/fwo/IDD60901/IDD60901.94116.json